UAL397 SAEZ-KMIA
Flight info
| Callsign | UAL397 |
|---|---|
| Flight time | N/A |
| Altitude | 34000 |
| Route | BIVA3A BIVAM UW8 PAR UL417 LENAX UL795 ALTIB UM779 ZEUSS VIICE2 |
| Aircraft | B772/H-VGDW/C |
Departure
| Time | 2026-04-30 04:03 |
|---|---|
| Airport | Ezeiza International Airport - Ministro Pistarini (SAEZ) |
Arrival
| Time | N/A |
|---|---|
| Airport | Miami International Airport (KMIA) |
| Time | Latitude | Longitude | Altitude | Speed | Heading |
|---|---|---|---|---|---|
| 2026-04-30 03:31 | -34.81675 | -58.54265 | 84 ft | 0 kts | 13° |
| 2026-04-30 03:44 | -34.81675 | -58.54266 | 83 ft | 0 kts | 13° |
| 2026-04-30 03:44 | -34.81683 | -58.54268 | 83 ft | 2 kts | 13° |
| 2026-04-30 03:44 | -34.81697 | -58.54271 | 83 ft | 2 kts | 13° |
| 2026-04-30 03:44 | -34.81709 | -58.54275 | 83 ft | 0 kts | 13° |
| 2026-04-30 03:45 | -34.81720 | -58.54277 | 83 ft | 2 kts | 356° |
| 2026-04-30 03:45 | -34.81734 | -58.54272 | 83 ft | 2 kts | 327° |
| 2026-04-30 03:45 | -34.81745 | -58.54260 | 83 ft | 2 kts | 301° |
| 2026-04-30 03:45 | -34.81750 | -58.54244 | 83 ft | 2 kts | 276° |
| 2026-04-30 03:46 | -34.81750 | -58.54232 | 83 ft | 0 kts | 258° |
| 2026-04-30 03:46 | -34.81749 | -58.54226 | 83 ft | 0 kts | 258° |
| 2026-04-30 03:52 | -34.81751 | -58.54234 | 83 ft | 4 kts | 249° |
| 2026-04-30 03:53 | -34.81768 | -58.54279 | 82 ft | 8 kts | 258° |
| 2026-04-30 03:53 | -34.81760 | -58.54393 | 81 ft | 14 kts | 279° |
| 2026-04-30 03:53 | -34.81752 | -58.54514 | 80 ft | 14 kts | 268° |
| 2026-04-30 03:53 | -34.81772 | -58.54640 | 78 ft | 15 kts | 258° |
| 2026-04-30 03:54 | -34.81775 | -58.54786 | 76 ft | 21 kts | 279° |
| 2026-04-30 03:54 | -34.81742 | -58.54975 | 75 ft | 22 kts | 284° |
| 2026-04-30 03:54 | -34.81708 | -58.55157 | 74 ft | 21 kts | 282° |
| 2026-04-30 03:54 | -34.81700 | -58.55285 | 73 ft | 13 kts | 250° |
| 2026-04-30 03:55 | -34.81737 | -58.55335 | 73 ft | 0 kts | 207° |
| 2026-04-30 03:55 | -34.81738 | -58.55335 | 73 ft | 0 kts | 207° |
| 2026-04-30 03:55 | -34.81737 | -58.55335 | 73 ft | 0 kts | 207° |
| 2026-04-30 03:56 | -34.81747 | -58.55339 | 73 ft | 8 kts | 200° |
| 2026-04-30 03:56 | -34.81817 | -58.55333 | 73 ft | 10 kts | 153° |
| 2026-04-30 03:56 | -34.81881 | -58.55299 | 73 ft | 9 kts | 161° |
| 2026-04-30 03:57 | -34.81921 | -58.55255 | 73 ft | 6 kts | 104° |
| 2026-04-30 03:57 | -34.81926 | -58.55228 | 73 ft | 0 kts | 103° |
| 2026-04-30 04:02 | -34.81936 | -58.55175 | 73 ft | 31 kts | 103° |
| 2026-04-30 04:02 | -34.82037 | -58.54612 | 77 ft | 104 kts | 103° |
| 2026-04-30 04:03 | -34.82240 | -58.53482 | 82 ft | 170 kts | 103° |
| 2026-04-30 04:03 | -34.82531 | -58.51931 | 569 ft | 197 kts | 104° |
| 2026-04-30 04:03 | -34.82912 | -58.50377 | 1545 ft | 197 kts | 118° |
| 2026-04-30 04:03 | -34.83864 | -58.49195 | 2424 ft | 201 kts | 149° |
| 2026-04-30 04:04 | -34.84979 | -58.48158 | 3215 ft | 212 kts | 129° |
| 2026-04-30 04:04 | -34.85769 | -58.46569 | 3912 ft | 230 kts | 120° |
| 2026-04-30 04:04 | -34.86571 | -58.44797 | 4646 ft | 247 kts | 121° |
| 2026-04-30 04:04 | -34.87645 | -58.43147 | 5407 ft | 259 kts | 148° |
| 2026-04-30 04:05 | -34.89338 | -58.42291 | 5955 ft | 268 kts | 177° |
| 2026-04-30 04:05 | -34.91126 | -58.42617 | 6003 ft | 262 kts | 211° |
| 2026-04-30 04:05 | -34.92549 | -58.43969 | 6437 ft | 257 kts | 226° |
| 2026-04-30 04:05 | -34.93814 | -58.45435 | 7140 ft | 252 kts | 226° |
| 2026-04-30 04:06 | -34.95121 | -58.46961 | 7589 ft | 258 kts | 226° |
| 2026-04-30 04:06 | -34.96418 | -58.48478 | 8086 ft | 261 kts | 226° |
| 2026-04-30 04:06 | -34.97721 | -58.50001 | 8630 ft | 262 kts | 226° |
| 2026-04-30 04:06 | -34.99040 | -58.51545 | 9225 ft | 262 kts | 226° |
| 2026-04-30 04:07 | -35.00349 | -58.53078 | 9745 ft | 264 kts | 226° |
| 2026-04-30 04:07 | -35.01604 | -58.54548 | 10261 ft | 264 kts | 226° |
| 2026-04-30 04:07 | -35.02965 | -58.56147 | 10518 ft | 276 kts | 226° |
| 2026-04-30 04:08 | -35.05889 | -58.59581 | 10896 ft | 307 kts | 226° |
| 2026-04-30 04:08 | -35.07458 | -58.61425 | 11094 ft | 322 kts | 226° |
| 2026-04-30 04:08 | -35.09091 | -58.63347 | 11340 ft | 336 kts | 226° |
| 2026-04-30 04:08 | -35.10816 | -58.65375 | 11655 ft | 348 kts | 226° |
| 2026-04-30 04:09 | -35.12567 | -58.67435 | 12202 ft | 352 kts | 226° |
| 2026-04-30 04:09 | -35.14341 | -58.69526 | 12890 ft | 352 kts | 227° |
| 2026-04-30 04:09 | -35.15895 | -58.71749 | 13479 ft | 352 kts | 237° |
| 2026-04-30 04:09 | -35.17059 | -58.74378 | 14025 ft | 353 kts | 249° |
| 2026-04-30 04:10 | -35.17732 | -58.77264 | 14628 ft | 354 kts | 259° |
| 2026-04-30 04:10 | -35.17989 | -58.80253 | 15227 ft | 355 kts | 268° |
| 2026-04-30 04:10 | -35.17822 | -58.83290 | 15782 ft | 359 kts | 277° |
| 2026-04-30 04:10 | -35.17223 | -58.86270 | 16315 ft | 364 kts | 285° |
| 2026-04-30 04:11 | -35.16193 | -58.89110 | 16824 ft | 370 kts | 295° |
| 2026-04-30 04:11 | -35.14752 | -58.91711 | 17357 ft | 377 kts | 304° |
| 2026-04-30 04:11 | -35.12891 | -58.94036 | 17794 ft | 386 kts | 314° |
| 2026-04-30 04:11 | -35.10659 | -58.95941 | 18259 ft | 396 kts | 324° |
| 2026-04-30 04:12 | -35.08158 | -58.97360 | 18659 ft | 405 kts | 330° |
| 2026-04-30 04:12 | -35.05503 | -58.98649 | 19030 ft | 410 kts | 331° |
| 2026-04-30 04:12 | -35.02851 | -58.99925 | 19453 ft | 412 kts | 331° |
| 2026-04-30 04:12 | -35.00165 | -59.01216 | 19870 ft | 414 kts | 330° |
| 2026-04-30 04:13 | -34.97483 | -59.02505 | 20232 ft | 418 kts | 330° |
| 2026-04-30 04:13 | -34.94745 | -59.03820 | 20565 ft | 422 kts | 330° |
| 2026-04-30 04:13 | -34.92027 | -59.05125 | 20927 ft | 424 kts | 330° |
| 2026-04-30 04:13 | -34.89245 | -59.06459 | 21395 ft | 429 kts | 330° |
| 2026-04-30 04:14 | -34.86484 | -59.07780 | 21975 ft | 429 kts | 330° |
| 2026-04-30 04:14 | -34.83686 | -59.09120 | 22460 ft | 432 kts | 330° |
| 2026-04-30 04:14 | -34.80888 | -59.10460 | 22863 ft | 436 kts | 329° |
| 2026-04-30 04:14 | -34.78012 | -59.11836 | 23187 ft | 442 kts | 329° |
| 2026-04-30 04:15 | -34.75160 | -59.13199 | 23613 ft | 445 kts | 329° |
| 2026-04-30 04:15 | -34.72246 | -59.14589 | 24071 ft | 447 kts | 329° |
| 2026-04-30 04:15 | -34.69346 | -59.15973 | 24440 ft | 450 kts | 329° |
| 2026-04-30 04:15 | -34.66409 | -59.17372 | 24829 ft | 453 kts | 329° |
| 2026-04-30 04:16 | -34.63462 | -59.18776 | 25180 ft | 457 kts | 329° |
| 2026-04-30 04:16 | -34.60522 | -59.20176 | 25540 ft | 460 kts | 329° |
| 2026-04-30 04:16 | -34.57491 | -59.21617 | 25883 ft | 463 kts | 329° |
| 2026-04-30 04:16 | -34.54495 | -59.23040 | 26312 ft | 464 kts | 329° |
| 2026-04-30 04:17 | -34.51482 | -59.24471 | 26654 ft | 468 kts | 329° |
| 2026-04-30 04:17 | -34.48409 | -59.25928 | 27010 ft | 470 kts | 329° |
| 2026-04-30 04:17 | -34.45344 | -59.27380 | 27363 ft | 473 kts | 329° |
| 2026-04-30 04:17 | -34.42282 | -59.28830 | 27738 ft | 475 kts | 329° |
| 2026-04-30 04:18 | -34.39172 | -59.30302 | 28035 ft | 479 kts | 329° |
| 2026-04-30 04:18 | -34.36078 | -59.31765 | 28356 ft | 481 kts | 329° |
| 2026-04-30 04:18 | -34.32934 | -59.33250 | 28720 ft | 483 kts | 329° |
| 2026-04-30 04:18 | -34.29788 | -59.34734 | 29065 ft | 485 kts | 329° |
| 2026-04-30 04:19 | -34.26656 | -59.36211 | 29446 ft | 485 kts | 329° |
| 2026-04-30 04:19 | -34.23506 | -59.37693 | 29849 ft | 485 kts | 329° |
| 2026-04-30 04:19 | -34.20383 | -59.39160 | 30295 ft | 484 kts | 329° |
| 2026-04-30 04:19 | -34.17241 | -59.40636 | 30761 ft | 482 kts | 328° |
| 2026-04-30 04:20 | -34.14128 | -59.42096 | 31186 ft | 480 kts | 329° |
| 2026-04-30 04:20 | -34.11011 | -59.43557 | 31630 ft | 477 kts | 328° |
| 2026-04-30 04:20 | -34.07917 | -59.45006 | 32088 ft | 474 kts | 328° |
| 2026-04-30 04:20 | -34.04826 | -59.46452 | 32450 ft | 473 kts | 328° |
| 2026-04-30 04:21 | -34.01738 | -59.47897 | 32789 ft | 472 kts | 328° |
| 2026-04-30 04:21 | -33.98705 | -59.49314 | 33129 ft | 470 kts | 328° |
| 2026-04-30 04:21 | -33.95643 | -59.50745 | 33414 ft | 470 kts | 328° |
| 2026-04-30 04:21 | -33.92592 | -59.52169 | 33724 ft | 468 kts | 328° |
| 2026-04-30 04:22 | -33.89536 | -59.53594 | 34014 ft | 467 kts | 328° |
| 2026-04-30 04:22 | -33.83406 | -59.56454 | 34002 ft | 472 kts | 329° |
| 2026-04-30 04:23 | -33.77289 | -59.59303 | 33997 ft | 476 kts | 329° |
| 2026-04-30 04:23 | -33.71085 | -59.62188 | 34000 ft | 480 kts | 329° |
| 2026-04-30 04:24 | -33.64813 | -59.65100 | 34002 ft | 484 kts | 330° |
| 2026-04-30 04:24 | -33.58481 | -59.68036 | 34023 ft | 489 kts | 330° |
| 2026-04-30 04:25 | -33.52043 | -59.71016 | 34023 ft | 493 kts | 330° |
| 2026-04-30 04:25 | -33.45651 | -59.73967 | 34029 ft | 492 kts | 330° |
| 2026-04-30 04:26 | -33.39209 | -59.76935 | 34033 ft | 492 kts | 330° |
| 2026-04-30 04:26 | -33.32802 | -59.79884 | 34031 ft | 492 kts | 330° |
| 2026-04-30 04:27 | -33.26373 | -59.82837 | 34024 ft | 492 kts | 330° |
| 2026-04-30 04:27 | -33.19991 | -59.85764 | 34025 ft | 491 kts | 330° |
| 2026-04-30 04:28 | -33.13581 | -59.88700 | 34028 ft | 492 kts | 330° |
| 2026-04-30 04:28 | -33.07201 | -59.91618 | 34030 ft | 493 kts | 330° |
| 2026-04-30 04:29 | -33.00765 | -59.94548 | 34032 ft | 492 kts | 331° |
| 2026-04-30 04:29 | -32.94340 | -59.97476 | 34028 ft | 492 kts | 331° |
| 2026-04-30 04:30 | -32.87929 | -60.00395 | 34023 ft | 493 kts | 331° |
| 2026-04-30 04:30 | -32.81494 | -60.03318 | 34024 ft | 492 kts | 331° |
| 2026-04-30 04:31 | -32.75098 | -60.06220 | 34024 ft | 491 kts | 331° |
| 2026-04-30 04:31 | -32.68698 | -60.09118 | 34024 ft | 489 kts | 331° |
| 2026-04-30 04:32 | -32.62327 | -60.11998 | 34019 ft | 487 kts | 331° |
| 2026-04-30 04:32 | -32.55954 | -60.14877 | 34026 ft | 488 kts | 331° |
| 2026-04-30 04:33 | -32.49636 | -60.17727 | 34016 ft | 490 kts | 331° |
| 2026-04-30 04:33 | -32.43222 | -60.20619 | 34004 ft | 489 kts | 332° |
| 2026-04-30 04:34 | -32.36859 | -60.23478 | 34011 ft | 488 kts | 332° |